AAL1478 KTPA-KPBI
Flight info
| Callsign | AAL1478 |
|---|---|
| Flight time | 0h 36m |
| Altitude | 16000 |
| Route | GANDY8 SABEE VUUDU1 |
| Aircraft | B738/M-SDE2E3FGHIRWXY/LB1 |
Departure
| Time | 2026-04-22 23:24 |
|---|---|
| Airport | Tampa International Airport (KTPA) |
Arrival
| Time | 2026-04-23 00:00 |
|---|---|
| Airport | Palm Beach International Airport (KPBI) |
| Time | Latitude | Longitude | Altitude | Speed | Heading |
|---|---|---|---|---|---|
| 2026-04-22 22:55 | 27.98400 | -82.53745 | 22 ft | 0 kts | 159° |
| 2026-04-22 23:07 | 27.98399 | -82.53744 | 22 ft | 0 kts | 159° |
| 2026-04-22 23:07 | 27.98395 | -82.53743 | 22 ft | 0 kts | 159° |
| 2026-04-22 23:07 | 27.98391 | -82.53741 | 22 ft | 1 kts | 159° |
| 2026-04-22 23:07 | 27.98375 | -82.53734 | 21 ft | 3 kts | 159° |
| 2026-04-22 23:08 | 27.98345 | -82.53721 | 21 ft | 5 kts | 159° |
| 2026-04-22 23:08 | 27.98343 | -82.53720 | 21 ft | 0 kts | 159° |
| 2026-04-22 23:12 | 27.98344 | -82.53720 | 21 ft | 0 kts | 159° |
| 2026-04-22 23:12 | 27.98362 | -82.53728 | 22 ft | 5 kts | 159° |
| 2026-04-22 23:12 | 27.98407 | -82.53748 | 22 ft | 8 kts | 159° |
| 2026-04-22 23:12 | 27.98443 | -82.53764 | 21 ft | 0 kts | 165° |
| 2026-04-22 23:13 | 27.98445 | -82.53764 | 21 ft | 1 kts | 166° |
| 2026-04-22 23:13 | 27.98458 | -82.53767 | 22 ft | 3 kts | 168° |
| 2026-04-22 23:13 | 27.98457 | -82.53767 | 22 ft | 0 kts | 168° |
| 2026-04-22 23:15 | 27.98404 | -82.53738 | 22 ft | 6 kts | 139° |
| 2026-04-22 23:15 | 27.98374 | -82.53692 | 22 ft | 8 kts | 114° |
| 2026-04-22 23:15 | 27.98365 | -82.53621 | 22 ft | 10 kts | 82° |
| 2026-04-22 23:15 | 27.98399 | -82.53545 | 21 ft | 11 kts | 44° |
| 2026-04-22 23:16 | 27.98475 | -82.53494 | 22 ft | 13 kts | 37° |
| 2026-04-22 23:16 | 27.98506 | -82.53454 | 22 ft | 0 kts | 60° |
| 2026-04-22 23:19 | 27.98506 | -82.53448 | 23 ft | 3 kts | 90° |
| 2026-04-22 23:19 | 27.98494 | -82.53329 | 25 ft | 27 kts | 94° |
| 2026-04-22 23:19 | 27.98542 | -82.53153 | 25 ft | 22 kts | 2° |
| 2026-04-22 23:19 | 27.98635 | -82.53265 | 25 ft | 21 kts | 275° |
| 2026-04-22 23:20 | 27.98640 | -82.53447 | 23 ft | 24 kts | 271° |
| 2026-04-22 23:20 | 27.98646 | -82.53645 | 22 ft | 26 kts | 271° |
| 2026-04-22 23:20 | 27.98652 | -82.53855 | 21 ft | 27 kts | 271° |
| 2026-04-22 23:20 | 27.98719 | -82.54031 | 18 ft | 27 kts | 356° |
| 2026-04-22 23:21 | 27.98912 | -82.54027 | 18 ft | 28 kts | 2° |
| 2026-04-22 23:21 | 27.99114 | -82.54018 | 20 ft | 28 kts | 2° |
| 2026-04-22 23:21 | 27.99263 | -82.54050 | 21 ft | 0 kts | 290° |
| 2026-04-22 23:23 | 27.99257 | -82.54113 | 20 ft | 17 kts | 241° |
| 2026-04-22 23:23 | 27.99116 | -82.54137 | 19 ft | 13 kts | 181° |
| 2026-04-22 23:24 | 27.99112 | -82.54137 | 19 ft | 0 kts | 181° |
| 2026-04-22 23:24 | 27.99002 | -82.54141 | 18 ft | 62 kts | 182° |
| 2026-04-22 23:24 | 27.98124 | -82.54175 | 47 ft | 182 kts | 182° |
| 2026-04-22 23:24 | 27.96719 | -82.54243 | 1074 ft | 221 kts | 181° |
| 2026-04-22 23:25 | 27.95180 | -82.54282 | 2684 ft | 238 kts | 180° |
| 2026-04-22 23:25 | 27.93536 | -82.54305 | 4285 ft | 252 kts | 180° |
| 2026-04-22 23:25 | 27.91783 | -82.54341 | 5888 ft | 262 kts | 182° |
| 2026-04-22 23:25 | 27.90026 | -82.54725 | 7447 ft | 269 kts | 196° |
| 2026-04-22 23:26 | 27.88241 | -82.55351 | 9016 ft | 274 kts | 196° |
| 2026-04-22 23:26 | 27.86444 | -82.55852 | 10532 ft | 276 kts | 192° |
| 2026-04-22 23:26 | 27.84590 | -82.56226 | 12056 ft | 274 kts | 188° |
| 2026-04-22 23:26 | 27.82764 | -82.56524 | 13547 ft | 270 kts | 187° |
| 2026-04-22 23:27 | 27.80951 | -82.56798 | 14809 ft | 267 kts | 187° |
| 2026-04-22 23:27 | 27.79053 | -82.57085 | 14926 ft | 275 kts | 187° |
| 2026-04-22 23:27 | 27.77124 | -82.57228 | 14894 ft | 290 kts | 177° |
| 2026-04-22 23:27 | 27.75034 | -82.56750 | 14912 ft | 323 kts | 160° |
| 2026-04-22 23:28 | 27.72887 | -82.55776 | 14904 ft | 333 kts | 156° |
| 2026-04-22 23:28 | 27.70756 | -82.54697 | 14902 ft | 334 kts | 155° |
| 2026-04-22 23:28 | 27.68650 | -82.53624 | 14901 ft | 334 kts | 155° |
| 2026-04-22 23:28 | 27.66502 | -82.52557 | 14901 ft | 334 kts | 156° |
| 2026-04-22 23:29 | 27.64361 | -82.51517 | 14901 ft | 334 kts | 156° |
| 2026-04-22 23:29 | 27.62239 | -82.50503 | 14901 ft | 334 kts | 157° |
| 2026-04-22 23:29 | 27.60069 | -82.49474 | 14901 ft | 334 kts | 157° |
| 2026-04-22 23:29 | 27.57936 | -82.48466 | 14901 ft | 334 kts | 157° |
| 2026-04-22 23:30 | 27.55809 | -82.47417 | 14901 ft | 334 kts | 154° |
| 2026-04-22 23:30 | 27.53725 | -82.46227 | 14901 ft | 334 kts | 151° |
| 2026-04-22 23:30 | 27.51674 | -82.44960 | 14901 ft | 334 kts | 150° |
| 2026-04-22 23:30 | 27.49635 | -82.43681 | 14901 ft | 334 kts | 150° |
| 2026-04-22 23:31 | 27.47596 | -82.42415 | 14901 ft | 334 kts | 151° |
| 2026-04-22 23:31 | 27.46108 | -82.41502 | 14901 ft | 334 kts | 151° |
| 2026-04-22 23:32 | 27.44221 | -82.40357 | 14901 ft | 334 kts | 151° |
| 2026-04-22 23:32 | 27.42170 | -82.39122 | 14901 ft | 334 kts | 152° |
| 2026-04-22 23:32 | 27.40114 | -82.37889 | 14901 ft | 334 kts | 152° |
| 2026-04-22 23:32 | 27.38048 | -82.36652 | 14901 ft | 334 kts | 152° |
| 2026-04-22 23:33 | 27.36683 | -82.35834 | 14901 ft | 334 kts | 152° |
| 2026-04-22 23:33 | 27.36010 | -82.35432 | 14894 ft | 335 kts | 152° |
| 2026-04-22 23:33 | 27.33955 | -82.34201 | 14902 ft | 334 kts | 152° |
| 2026-04-22 23:33 | 27.31908 | -82.32976 | 14901 ft | 335 kts | 152° |
| 2026-04-22 23:34 | 27.29859 | -82.31749 | 14901 ft | 334 kts | 152° |
| 2026-04-22 23:34 | 27.27784 | -82.30508 | 14901 ft | 335 kts | 152° |
| 2026-04-22 23:34 | 27.25728 | -82.29278 | 14901 ft | 335 kts | 152° |
| 2026-04-22 23:34 | 27.23667 | -82.28046 | 14901 ft | 335 kts | 152° |
| 2026-04-22 23:35 | 27.21591 | -82.26804 | 14901 ft | 335 kts | 152° |
| 2026-04-22 23:35 | 27.19832 | -82.25754 | 14901 ft | 335 kts | 152° |
| 2026-04-22 23:35 | 27.17787 | -82.24532 | 14901 ft | 335 kts | 152° |
| 2026-04-22 23:35 | 27.15721 | -82.23299 | 14901 ft | 335 kts | 152° |
| 2026-04-22 23:36 | 27.13650 | -82.22063 | 14903 ft | 339 kts | 152° |
| 2026-04-22 23:36 | 27.11487 | -82.20772 | 14901 ft | 363 kts | 152° |
| 2026-04-22 23:36 | 27.09277 | -82.19305 | 14898 ft | 370 kts | 146° |
| 2026-04-22 23:36 | 27.07233 | -82.17560 | 14901 ft | 370 kts | 139° |
| 2026-04-22 23:37 | 27.05344 | -82.15617 | 14901 ft | 370 kts | 136° |
| 2026-04-22 23:37 | 27.03516 | -82.13560 | 14901 ft | 370 kts | 134° |
| 2026-04-22 23:37 | 27.01727 | -82.11488 | 14901 ft | 370 kts | 134° |
| 2026-04-22 23:37 | 26.99945 | -82.09425 | 14901 ft | 370 kts | 134° |
| 2026-04-22 23:38 | 26.98139 | -82.07362 | 14901 ft | 370 kts | 134° |
| 2026-04-22 23:38 | 26.96315 | -82.05305 | 14901 ft | 370 kts | 135° |
| 2026-04-22 23:38 | 26.94482 | -82.03256 | 14901 ft | 370 kts | 135° |
| 2026-04-22 23:38 | 26.92665 | -82.01237 | 14901 ft | 370 kts | 135° |
| 2026-04-22 23:39 | 26.90834 | -81.99207 | 14901 ft | 370 kts | 135° |
| 2026-04-22 23:39 | 26.89005 | -81.97181 | 14901 ft | 370 kts | 135° |
| 2026-04-22 23:39 | 26.87151 | -81.95129 | 14901 ft | 370 kts | 135° |
| 2026-04-22 23:39 | 26.85333 | -81.93117 | 14901 ft | 370 kts | 135° |
| 2026-04-22 23:40 | 26.83549 | -81.91021 | 14900 ft | 370 kts | 130° |
| 2026-04-22 23:40 | 26.82083 | -81.88760 | 14900 ft | 370 kts | 120° |
| 2026-04-22 23:40 | 26.80899 | -81.86182 | 14902 ft | 371 kts | 114° |
| 2026-04-22 23:40 | 26.79891 | -81.83538 | 14901 ft | 370 kts | 112° |
| 2026-04-22 23:41 | 26.78957 | -81.80882 | 14901 ft | 370 kts | 111° |
| 2026-04-22 23:41 | 26.78018 | -81.78172 | 14901 ft | 370 kts | 111° |
| 2026-04-22 23:41 | 26.77082 | -81.75506 | 14901 ft | 370 kts | 111° |
| 2026-04-22 23:41 | 26.76130 | -81.72848 | 14901 ft | 370 kts | 112° |
| 2026-04-22 23:42 | 26.75154 | -81.70168 | 14901 ft | 370 kts | 112° |
| 2026-04-22 23:42 | 26.74178 | -81.67516 | 14901 ft | 370 kts | 112° |
| 2026-04-22 23:42 | 26.73187 | -81.64840 | 14901 ft | 370 kts | 112° |
| 2026-04-22 23:42 | 26.72205 | -81.62193 | 14901 ft | 370 kts | 112° |
| 2026-04-22 23:43 | 26.71212 | -81.59520 | 14901 ft | 370 kts | 112° |
| 2026-04-22 23:43 | 26.70226 | -81.56865 | 14901 ft | 370 kts | 112° |
| 2026-04-22 23:43 | 26.69244 | -81.54224 | 14901 ft | 370 kts | 112° |
| 2026-04-22 23:43 | 26.68294 | -81.51535 | 14901 ft | 370 kts | 108° |
| 2026-04-22 23:44 | 26.67735 | -81.48731 | 14898 ft | 370 kts | 94° |
| 2026-04-22 23:44 | 26.67945 | -81.45885 | 14906 ft | 370 kts | 78° |
| 2026-04-22 23:44 | 26.68576 | -81.43074 | 14901 ft | 371 kts | 74° |
| 2026-04-22 23:44 | 26.69274 | -81.40339 | 14901 ft | 370 kts | 73° |
| 2026-04-22 23:45 | 26.69991 | -81.37571 | 14901 ft | 370 kts | 73° |
| 2026-04-22 23:45 | 26.70692 | -81.34798 | 14901 ft | 370 kts | 75° |
| 2026-04-22 23:45 | 26.71370 | -81.32031 | 14901 ft | 370 kts | 75° |
| 2026-04-22 23:45 | 26.72042 | -81.29221 | 14901 ft | 370 kts | 75° |
| 2026-04-22 23:46 | 26.72694 | -81.26453 | 14901 ft | 370 kts | 75° |
| 2026-04-22 23:46 | 26.73345 | -81.23672 | 14901 ft | 370 kts | 75° |
| 2026-04-22 23:46 | 26.73993 | -81.20887 | 14901 ft | 370 kts | 75° |
| 2026-04-22 23:46 | 26.74641 | -81.18101 | 14901 ft | 370 kts | 75° |
| 2026-04-22 23:47 | 26.75289 | -81.15309 | 14901 ft | 370 kts | 75° |
| 2026-04-22 23:47 | 26.75933 | -81.12540 | 14901 ft | 370 kts | 75° |
| 2026-04-22 23:47 | 26.76579 | -81.09761 | 14901 ft | 370 kts | 75° |
| 2026-04-22 23:47 | 26.77232 | -81.06947 | 14901 ft | 370 kts | 75° |
| 2026-04-22 23:48 | 26.77874 | -81.04181 | 14901 ft | 370 kts | 75° |
| 2026-04-22 23:48 | 26.78466 | -81.01360 | 14900 ft | 370 kts | 79° |
| 2026-04-22 23:48 | 26.78838 | -80.98518 | 14901 ft | 370 kts | 84° |
| 2026-04-22 23:48 | 26.79035 | -80.95646 | 14901 ft | 370 kts | 87° |
| 2026-04-22 23:49 | 26.79146 | -80.92787 | 14901 ft | 370 kts | 88° |
| 2026-04-22 23:49 | 26.79232 | -80.89879 | 14901 ft | 370 kts | 88° |
| 2026-04-22 23:49 | 26.79320 | -80.86998 | 14923 ft | 370 kts | 88° |
| 2026-04-22 23:49 | 26.79412 | -80.84148 | 14995 ft | 370 kts | 88° |
| 2026-04-22 23:50 | 26.79518 | -80.81253 | 15083 ft | 374 kts | 87° |
| 2026-04-22 23:50 | 26.79584 | -80.78371 | 14462 ft | 377 kts | 90° |
| 2026-04-22 23:50 | 26.79353 | -80.75439 | 13510 ft | 380 kts | 100° |
| 2026-04-22 23:50 | 26.78685 | -80.72590 | 12532 ft | 382 kts | 107° |
| 2026-04-22 23:51 | 26.77808 | -80.69788 | 11301 ft | 391 kts | 110° |
| 2026-04-22 23:51 | 26.76818 | -80.66943 | 10121 ft | 396 kts | 111° |
| 2026-04-22 23:51 | 26.75823 | -80.64154 | 9696 ft | 362 kts | 111° |
| 2026-04-22 23:51 | 26.74961 | -80.61718 | 9910 ft | 317 kts | 111° |
| 2026-04-22 23:52 | 26.74199 | -80.59538 | 9914 ft | 285 kts | 111° |
| 2026-04-22 23:52 | 26.73570 | -80.57564 | 9912 ft | 259 kts | 106° |
| 2026-04-22 23:52 | 26.73112 | -80.55669 | 9523 ft | 253 kts | 103° |
| 2026-04-22 23:52 | 26.72723 | -80.53674 | 8436 ft | 272 kts | 101° |
| 2026-04-22 23:53 | 26.72378 | -80.51666 | 8248 ft | 252 kts | 100° |
| 2026-04-22 23:53 | 26.72071 | -80.49844 | 8292 ft | 227 kts | 101° |
| 2026-04-22 23:53 | 26.71768 | -80.48177 | 8119 ft | 215 kts | 102° |
| 2026-04-22 23:53 | 26.71428 | -80.46580 | 7932 ft | 206 kts | 103° |
| 2026-04-22 23:54 | 26.71094 | -80.44966 | 7118 ft | 228 kts | 102° |
| 2026-04-22 23:54 | 26.70817 | -80.43218 | 6611 ft | 227 kts | 98° |
| 2026-04-22 23:54 | 26.70611 | -80.41540 | 6256 ft | 212 kts | 97° |
| 2026-04-22 23:54 | 26.70411 | -80.39947 | 5796 ft | 204 kts | 98° |
| 2026-04-22 23:55 | 26.70196 | -80.38388 | 5238 ft | 203 kts | 98° |
| 2026-04-22 23:55 | 26.70036 | -80.36818 | 4648 ft | 204 kts | 96° |
| 2026-04-22 23:55 | 26.69865 | -80.35263 | 4206 ft | 198 kts | 97° |
| 2026-04-22 23:55 | 26.69669 | -80.33751 | 3542 ft | 204 kts | 98° |
| 2026-04-22 23:56 | 26.69506 | -80.32179 | 2949 ft | 203 kts | 96° |
| 2026-04-22 23:56 | 26.69365 | -80.30726 | 2959 ft | 173 kts | 97° |
| 2026-04-22 23:56 | 26.69228 | -80.29479 | 2829 ft | 155 kts | 96° |
| 2026-04-22 23:56 | 26.69124 | -80.28346 | 2705 ft | 146 kts | 96° |
| 2026-04-22 23:57 | 26.69026 | -80.27158 | 2990 ft | 162 kts | 95° |
| 2026-04-22 23:57 | 26.68965 | -80.25839 | 3317 ft | 176 kts | 92° |
| 2026-04-22 23:57 | 26.68928 | -80.24429 | 3190 ft | 183 kts | 92° |
| 2026-04-22 23:57 | 26.68883 | -80.23011 | 2894 ft | 184 kts | 92° |
| 2026-04-22 23:58 | 26.68830 | -80.21584 | 2492 ft | 182 kts | 93° |
| 2026-04-22 23:58 | 26.68764 | -80.20136 | 2148 ft | 191 kts | 93° |
| 2026-04-22 23:58 | 26.68700 | -80.18702 | 1748 ft | 178 kts | 93° |
| 2026-04-22 23:58 | 26.68636 | -80.17376 | 1349 ft | 167 kts | 94° |
| 2026-04-22 23:59 | 26.68566 | -80.16140 | 1141 ft | 153 kts | 93° |
| 2026-04-22 23:59 | 26.68512 | -80.14944 | 962 ft | 152 kts | 93° |
| 2026-04-22 23:59 | 26.68459 | -80.13790 | 653 ft | 145 kts | 93° |
| 2026-04-22 23:59 | 26.68409 | -80.12690 | 460 ft | 142 kts | 93° |
| 2026-04-23 00:00 | 26.68311 | -80.10524 | 45 ft | 132 kts | 93° |
| 2026-04-23 00:00 | 26.68271 | -80.09675 | 18 ft | 69 kts | 92° |
| 2026-04-23 00:00 | 26.68258 | -80.09432 | 18 ft | 2 kts | 92° |
| 2026-04-23 00:01 | 26.68273 | -80.09327 | 18 ft | 14 kts | 54° |
| 2026-04-23 00:01 | 26.68329 | -80.09252 | 18 ft | 6 kts | 45° |
| 2026-04-23 00:01 | 26.68385 | -80.09186 | 18 ft | 13 kts | 48° |
| 2026-04-23 00:01 | 26.68452 | -80.09104 | 18 ft | 14 kts | 34° |
| 2026-04-23 00:02 | 26.68541 | -80.09106 | 18 ft | 12 kts | 337° |
| 2026-04-23 00:02 | 26.68574 | -80.09193 | 18 ft | 13 kts | 275° |
| 2026-04-23 00:02 | 26.68621 | -80.09255 | 18 ft | 11 kts | 324° |
| 2026-04-23 00:02 | 26.68638 | -80.09271 | 18 ft | 2 kts | 314° |
| 2026-04-23 00:03 | 26.68645 | -80.09279 | 18 ft | 0 kts | 315° |
| 2026-04-23 00:03 | 26.68649 | -80.09283 | 18 ft | 0 kts | 317° |
| 2026-04-23 00:03 | 26.68650 | -80.09284 | 18 ft | 0 kts | 317° |